sensor_id;sensor_type;location;lat;lon;timestamp;temperature;humidity
5802;DHT22;2927;49.366;8.530;2022-09-29T00:00:26;9.30;99.90
5802;DHT22;2927;49.366;8.530;2022-09-29T00:02:52;9.40;99.90
5802;DHT22;2927;49.366;8.530;2022-09-29T00:05:18;9.30;99.90
5802;DHT22;2927;49.366;8.530;2022-09-29T00:07:43;9.30;99.90
5802;DHT22;2927;49.366;8.530;2022-09-29T00:10:09;9.30;99.90
5802;DHT22;2927;49.366;8.530;2022-09-29T00:12:35;9.20;99.90
5802;DHT22;2927;49.366;8.530;2022-09-29T00:15:01;9.20;99.90
5802;DHT22;2927;49.366;8.530;2022-09-29T00:17:26;9.30;99.90
5802;DHT22;2927;49.366;8.530;2022-09-29T00:19:52;9.30;99.90
5802;DHT22;2927;49.366;8.530;2022-09-29T00:22:18;9.40;99.90
5802;DHT22;2927;49.366;8.530;2022-09-29T00:24:43;9.40;99.90
5802;DHT22;2927;49.366;8.530;2022-09-29T00:27:09;9.40;99.90
5802;DHT22;2927;49.366;8.530;2022-09-29T00:29:34;9.40;99.90
5802;DHT22;2927;49.366;8.530;2022-09-29T00:32:00;9.40;99.90
5802;DHT22;2927;49.366;8.530;2022-09-29T00:34:25;9.40;99.90
5802;DHT22;2927;49.366;8.530;2022-09-29T00:36:51;9.40;99.90
5802;DHT22;2927;49.366;8.530;2022-09-29T00:39:16;9.40;99.90
5802;DHT22;2927;49.366;8.530;2022-09-29T00:41:42;9.40;99.90
5802;DHT22;2927;49.366;8.530;2022-09-29T00:47:00;9.40;99.90
5802;DHT22;2927;49.366;8.530;2022-09-29T00:55:30;9.50;99.90
5802;DHT22;2927;49.366;8.530;2022-09-29T01:00:41;9.50;99.90
5802;DHT22;2927;49.366;8.530;2022-09-29T01:03:10;9.50;99.90
5802;DHT22;2927;49.366;8.530;2022-09-29T01:05:41;9.50;99.90
5802;DHT22;2927;49.366;8.530;2022-09-29T01:08:19;9.60;99.90
5802;DHT22;2927;49.366;8.530;2022-09-29T01:10:47;9.60;99.90
5802;DHT22;2927;49.366;8.530;2022-09-29T01:13:13;9.60;99.90
5802;DHT22;2927;49.366;8.530;2022-09-29T01:15:39;9.60;99.90
5802;DHT22;2927;49.366;8.530;2022-09-29T01:18:05;9.60;99.90
5802;DHT22;2927;49.366;8.530;2022-09-29T01:20:32;9.60;99.90
5802;DHT22;2927;49.366;8.530;2022-09-29T01:31:49;9.50;99.90
5802;DHT22;2927;49.366;8.530;2022-09-29T01:34:34;9.50;99.90
5802;DHT22;2927;49.366;8.530;2022-09-29T01:42:22;9.50;99.90
5802;DHT22;2927;49.366;8.530;2022-09-29T01:44:52;9.50;99.90
5802;DHT22;2927;49.366;8.530;2022-09-29T01:47:20;9.50;99.90
5802;DHT22;2927;49.366;8.530;2022-09-29T01:50:03;9.60;99.90
5802;DHT22;2927;49.366;8.530;2022-09-29T01:52:32;9.60;99.90
5802;DHT22;2927;49.366;8.530;2022-09-29T01:55:08;9.60;99.90
5802;DHT22;2927;49.366;8.530;2022-09-29T01:58:02;9.50;99.90
5802;DHT22;2927;49.366;8.530;2022-09-29T02:00:36;9.50;99.90
5802;DHT22;2927;49.366;8.530;2022-09-29T02:03:10;9.50;99.90
5802;DHT22;2927;49.366;8.530;2022-09-29T02:08:13;9.40;99.90
5802;DHT22;2927;49.366;8.530;2022-09-29T02:10:52;9.40;99.90
5802;DHT22;2927;49.366;8.530;2022-09-29T02:13:20;9.40;99.90
5802;DHT22;2927;49.366;8.530;2022-09-29T02:15:50;9.40;99.90
5802;DHT22;2927;49.366;8.530;2022-09-29T02:18:21;9.40;99.90
5802;DHT22;2927;49.366;8.530;2022-09-29T02:20:48;9.40;99.90
5802;DHT22;2927;49.366;8.530;2022-09-29T02:23:14;9.30;99.90
5802;DHT22;2927;49.366;8.530;2022-09-29T02:25:40;9.30;99.90
5802;DHT22;2927;49.366;8.530;2022-09-29T02:28:07;9.30;99.90
5802;DHT22;2927;49.366;8.530;2022-09-29T02:30:34;9.30;99.90
5802;DHT22;2927;49.366;8.530;2022-09-29T02:36:48;9.30;99.90
5802;DHT22;2927;49.366;8.530;2022-09-29T02:45:02;9.10;99.90
5802;DHT22;2927;49.366;8.530;2022-09-29T02:48:04;9.10;99.90
5802;DHT22;2927;49.366;8.530;2022-09-29T02:50:40;9.10;99.90
5802;DHT22;2927;49.366;8.530;2022-09-29T03:00:57;9.20;99.90
5802;DHT22;2927;49.366;8.530;2022-09-29T03:03:23;9.20;99.90
5802;DHT22;2927;49.366;8.530;2022-09-29T03:05:50;9.10;99.90
5802;DHT22;2927;49.366;8.530;2022-09-29T03:08:15;9.00;99.90
5802;DHT22;2927;49.366;8.530;2022-09-29T03:10:41;8.90;99.90
5802;DHT22;2927;49.366;8.530;2022-09-29T03:13:06;9.00;99.90
5802;DHT22;2927;49.366;8.530;2022-09-29T03:15:32;9.00;99.90
5802;DHT22;2927;49.366;8.530;2022-09-29T03:17:57;9.00;99.90
5802;DHT22;2927;49.366;8.530;2022-09-29T03:20:23;9.10;99.90
5802;DHT22;2927;49.366;8.530;2022-09-29T03:22:54;9.20;99.90
5802;DHT22;2927;49.366;8.530;2022-09-29T03:25:20;9.20;99.90
5802;DHT22;2927;49.366;8.530;2022-09-29T03:27:47;9.20;99.90
5802;DHT22;2927;49.366;8.530;2022-09-29T03:30:14;9.20;99.90
5802;DHT22;2927;49.366;8.530;2022-09-29T03:32:44;9.30;99.90
5802;DHT22;2927;49.366;8.530;2022-09-29T03:35:10;9.10;99.90
5802;DHT22;2927;49.366;8.530;2022-09-29T03:37:36;9.10;99.90
5802;DHT22;2927;49.366;8.530;2022-09-29T03:40:03;9.10;99.90
5802;DHT22;2927;49.366;8.530;2022-09-29T03:42:29;9.20;99.90
5802;DHT22;2927;49.366;8.530;2022-09-29T03:44:55;9.20;99.90
5802;DHT22;2927;49.366;8.530;2022-09-29T03:47:21;9.30;99.90
5802;DHT22;2927;49.366;8.530;2022-09-29T03:49:46;9.20;99.90
5802;DHT22;2927;49.366;8.530;2022-09-29T03:52:12;9.30;99.90
5802;DHT22;2927;49.366;8.530;2022-09-29T03:54:37;9.30;99.90
5802;DHT22;2927;49.366;8.530;2022-09-29T03:57:03;9.30;99.90
5802;DHT22;2927;49.366;8.530;2022-09-29T03:59:29;9.30;99.90
5802;DHT22;2927;49.366;8.530;2022-09-29T04:01:54;9.30;99.90
5802;DHT22;2927;49.366;8.530;2022-09-29T04:04:21;9.30;99.90
5802;DHT22;2927;49.366;8.530;2022-09-29T04:06:47;9.30;99.90
5802;DHT22;2927;49.366;8.530;2022-09-29T04:09:12;9.30;99.90
5802;DHT22;2927;49.366;8.530;2022-09-29T04:11:38;9.30;99.90
5802;DHT22;2927;49.366;8.530;2022-09-29T04:14:03;9.30;99.90
5802;DHT22;2927;49.366;8.530;2022-09-29T04:16:29;9.30;99.90
5802;DHT22;2927;49.366;8.530;2022-09-29T04:18:55;9.30;99.90
5802;DHT22;2927;49.366;8.530;2022-09-29T04:21:20;9.30;99.90
5802;DHT22;2927;49.366;8.530;2022-09-29T04:23:46;9.30;99.90
5802;DHT22;2927;49.366;8.530;2022-09-29T04:26:12;9.30;99.90
5802;DHT22;2927;49.366;8.530;2022-09-29T04:28:39;9.30;99.90
5802;DHT22;2927;49.366;8.530;2022-09-29T04:31:05;9.20;99.90
5802;DHT22;2927;49.366;8.530;2022-09-29T04:33:30;9.20;99.90
5802;DHT22;2927;49.366;8.530;2022-09-29T04:35:57;9.20;99.90
5802;DHT22;2927;49.366;8.530;2022-09-29T04:38:22;9.20;99.90
5802;DHT22;2927;49.366;8.530;2022-09-29T04:40:48;9.10;99.90
5802;DHT22;2927;49.366;8.530;2022-09-29T04:43:14;9.20;99.90
5802;DHT22;2927;49.366;8.530;2022-09-29T04:45:40;9.20;99.90
5802;DHT22;2927;49.366;8.530;2022-09-29T04:48:05;9.10;99.90
5802;DHT22;2927;49.366;8.530;2022-09-29T04:50:32;9.10;99.90
5802;DHT22;2927;49.366;8.530;2022-09-29T04:52:58;9.10;99.90
5802;DHT22;2927;49.366;8.530;2022-09-29T04:55:23;9.10;99.90
5802;DHT22;2927;49.366;8.530;2022-09-29T04:57:49;9.10;99.90
5802;DHT22;2927;49.366;8.530;2022-09-29T05:00:15;9.10;99.90
5802;DHT22;2927;49.366;8.530;2022-09-29T05:02:41;9.10;99.90
5802;DHT22;2927;49.366;8.530;2022-09-29T05:05:08;9.00;99.90
5802;DHT22;2927;49.366;8.530;2022-09-29T05:07:35;9.00;99.90
5802;DHT22;2927;49.366;8.530;2022-09-29T05:10:01;9.10;99.90
5802;DHT22;2927;49.366;8.530;2022-09-29T05:12:27;9.00;99.90
5802;DHT22;2927;49.366;8.530;2022-09-29T05:14:52;9.00;99.90
5802;DHT22;2927;49.366;8.530;2022-09-29T05:17:18;9.00;99.90
5802;DHT22;2927;49.366;8.530;2022-09-29T05:19:43;9.00;99.90
5802;DHT22;2927;49.366;8.530;2022-09-29T05:22:09;9.10;99.90
5802;DHT22;2927;49.366;8.530;2022-09-29T05:24:34;9.10;99.90
5802;DHT22;2927;49.366;8.530;2022-09-29T05:27:00;9.10;99.90
5802;DHT22;2927;49.366;8.530;2022-09-29T05:29:25;9.10;99.90
5802;DHT22;2927;49.366;8.530;2022-09-29T05:31:51;9.20;99.90
5802;DHT22;2927;49.366;8.530;2022-09-29T05:34:16;9.10;99.90
5802;DHT22;2927;49.366;8.530;2022-09-29T05:36:42;9.20;99.90
5802;DHT22;2927;49.366;8.530;2022-09-29T05:39:08;9.20;99.90
5802;DHT22;2927;49.366;8.530;2022-09-29T05:41:34;9.30;99.90
5802;DHT22;2927;49.366;8.530;2022-09-29T05:43:59;9.30;99.90
5802;DHT22;2927;49.366;8.530;2022-09-29T05:46:26;9.30;99.90
5802;DHT22;2927;49.366;8.530;2022-09-29T05:48:51;9.20;99.90
5802;DHT22;2927;49.366;8.530;2022-09-29T05:51:19;9.20;99.90
5802;DHT22;2927;49.366;8.530;2022-09-29T05:53:45;9.30;99.90
5802;DHT22;2927;49.366;8.530;2022-09-29T05:56:17;9.30;99.90
5802;DHT22;2927;49.366;8.530;2022-09-29T05:58:46;9.20;99.90
5802;DHT22;2927;49.366;8.530;2022-09-29T06:01:17;9.20;99.90
5802;DHT22;2927;49.366;8.530;2022-09-29T06:03:42;9.20;99.90
5802;DHT22;2927;49.366;8.530;2022-09-29T06:06:10;9.20;99.90
5802;DHT22;2927;49.366;8.530;2022-09-29T06:08:36;9.10;99.90
5802;DHT22;2927;49.366;8.530;2022-09-29T06:11:06;9.00;99.90
5802;DHT22;2927;49.366;8.530;2022-09-29T06:13:32;9.10;99.90
5802;DHT22;2927;49.366;8.530;2022-09-29T06:15:59;8.90;99.90
5802;DHT22;2927;49.366;8.530;2022-09-29T06:18:25;9.00;99.90
5802;DHT22;2927;49.366;8.530;2022-09-29T06:20:50;9.10;99.90
5802;DHT22;2927;49.366;8.530;2022-09-29T06:23:16;9.20;99.90
5802;DHT22;2927;49.366;8.530;2022-09-29T06:25:41;9.20;99.90
5802;DHT22;2927;49.366;8.530;2022-09-29T06:28:07;9.30;99.90
5802;DHT22;2927;49.366;8.530;2022-09-29T06:30:32;9.30;99.90
5802;DHT22;2927;49.366;8.530;2022-09-29T06:32:58;9.40;99.90
5802;DHT22;2927;49.366;8.530;2022-09-29T06:35:23;9.40;99.90
5802;DHT22;2927;49.366;8.530;2022-09-29T06:38:07;9.50;99.90
5802;DHT22;2927;49.366;8.530;2022-09-29T06:40:33;9.50;99.90
5802;DHT22;2927;49.366;8.530;2022-09-29T06:42:59;9.60;99.90
5802;DHT22;2927;49.366;8.530;2022-09-29T06:45:24;9.60;99.90
5802;DHT22;2927;49.366;8.530;2022-09-29T06:47:50;9.60;99.90
5802;DHT22;2927;49.366;8.530;2022-09-29T06:50:21;9.60;99.90
5802;DHT22;2927;49.366;8.530;2022-09-29T06:52:47;9.50;99.90
5802;DHT22;2927;49.366;8.530;2022-09-29T06:55:14;9.60;99.90
5802;DHT22;2927;49.366;8.530;2022-09-29T06:57:40;9.70;99.90
5802;DHT22;2927;49.366;8.530;2022-09-29T07:00:06;9.70;99.90
5802;DHT22;2927;49.366;8.530;2022-09-29T07:02:32;9.70;99.90
5802;DHT22;2927;49.366;8.530;2022-09-29T07:04:57;9.90;99.90
5802;DHT22;2927;49.366;8.530;2022-09-29T07:07:23;10.00;99.90
5802;DHT22;2927;49.366;8.530;2022-09-29T07:09:48;10.10;99.90
5802;DHT22;2927;49.366;8.530;2022-09-29T07:12:14;10.20;99.90
5802;DHT22;2927;49.366;8.530;2022-09-29T07:14:39;10.40;99.90
5802;DHT22;2927;49.366;8.530;2022-09-29T07:17:05;10.60;99.90
5802;DHT22;2927;49.366;8.530;2022-09-29T07:19:30;10.80;99.90
5802;DHT22;2927;49.366;8.530;2022-09-29T07:21:56;11.00;99.90
5802;DHT22;2927;49.366;8.530;2022-09-29T07:24:22;11.00;99.90
5802;DHT22;2927;49.366;8.530;2022-09-29T07:26:49;11.10;99.90
5802;DHT22;2927;49.366;8.530;2022-09-29T07:29:14;11.10;97.90
5802;DHT22;2927;49.366;8.530;2022-09-29T07:31:40;11.40;57.90
5802;DHT22;2927;49.366;8.530;2022-09-29T07:34:06;11.50;79.80
5802;DHT22;2927;49.366;8.530;2022-09-29T07:36:31;11.40;20.40
5802;DHT22;2927;49.366;8.530;2022-09-29T07:38:57;11.70;1.00
5802;DHT22;2927;49.366;8.530;2022-09-29T07:41:23;11.90;1.00
5802;DHT22;2927;49.366;8.530;2022-09-29T07:43:49;12.00;1.00
5802;DHT22;2927;49.366;8.530;2022-09-29T07:46:15;12.20;1.00
5802;DHT22;2927;49.366;8.530;2022-09-29T07:48:42;12.20;1.00
5802;DHT22;2927;49.366;8.530;2022-09-29T07:51:13;12.30;1.00
5802;DHT22;2927;49.366;8.530;2022-09-29T07:53:39;12.30;1.00
5802;DHT22;2927;49.366;8.530;2022-09-29T07:56:09;12.20;1.00
5802;DHT22;2927;49.366;8.530;2022-09-29T07:58:36;12.30;1.00
5802;DHT22;2927;49.366;8.530;2022-09-29T08:01:03;12.00;1.00
5802;DHT22;2927;49.366;8.530;2022-09-29T08:03:31;11.90;1.00
5802;DHT22;2927;49.366;8.530;2022-09-29T08:05:56;12.00;1.00
5802;DHT22;2927;49.366;8.530;2022-09-29T08:08:22;12.00;1.00
5802;DHT22;2927;49.366;8.530;2022-09-29T08:10:48;12.00;1.00
5802;DHT22;2927;49.366;8.530;2022-09-29T08:13:13;12.10;1.00
5802;DHT22;2927;49.366;8.530;2022-09-29T08:15:39;12.20;1.00
5802;DHT22;2927;49.366;8.530;2022-09-29T08:18:04;12.40;1.00
5802;DHT22;2927;49.366;8.530;2022-09-29T08:20:30;12.60;1.00
5802;DHT22;2927;49.366;8.530;2022-09-29T08:22:57;12.60;1.00
5802;DHT22;2927;49.366;8.530;2022-09-29T08:25:22;12.70;1.00
5802;DHT22;2927;49.366;8.530;2022-09-29T08:27:50;12.60;1.00
5802;DHT22;2927;49.366;8.530;2022-09-29T08:30:16;12.50;1.00
5802;DHT22;2927;49.366;8.530;2022-09-29T08:32:41;13.00;1.00
5802;DHT22;2927;49.366;8.530;2022-09-29T08:35:07;13.10;1.00
5802;DHT22;2927;49.366;8.530;2022-09-29T08:37:33;13.00;99.90
5802;DHT22;2927;49.366;8.530;2022-09-29T08:39:59;13.00;99.90
5802;DHT22;2927;49.366;8.530;2022-09-29T08:42:49;13.10;53.50
5802;DHT22;2927;49.366;8.530;2022-09-29T08:45:28;12.90;99.90
5802;DHT22;2927;49.366;8.530;2022-09-29T08:50:58;13.30;1.00
5802;DHT22;2927;49.366;8.530;2022-09-29T08:53:26;13.10;1.00
5802;DHT22;2927;49.366;8.530;2022-09-29T08:56:04;13.10;99.90
5802;DHT22;2927;49.366;8.530;2022-09-29T08:58:31;13.30;99.90
5802;DHT22;2927;49.366;8.530;2022-09-29T09:01:20;13.30;1.00
5802;DHT22;2927;49.366;8.530;2022-09-29T09:09:26;13.40;99.90
5802;DHT22;2927;49.366;8.530;2022-09-29T09:12:02;13.50;1.00
5802;DHT22;2927;49.366;8.530;2022-09-29T09:14:43;13.50;99.90
5802;DHT22;2927;49.366;8.530;2022-09-29T09:20:32;13.80;1.00
5802;DHT22;2927;49.366;8.530;2022-09-29T09:23:11;13.80;40.20
5802;DHT22;2927;49.366;8.530;2022-09-29T09:25:45;14.00;1.00
5802;DHT22;2927;49.366;8.530;2022-09-29T09:28:48;14.20;99.90
5802;DHT22;2927;49.366;8.530;2022-09-29T09:31:29;14.20;99.90
5802;DHT22;2927;49.366;8.530;2022-09-29T09:36:29;14.20;99.90
5802;DHT22;2927;49.366;8.530;2022-09-29T09:39:19;13.90;17.00
5802;DHT22;2927;49.366;8.530;2022-09-29T09:41:50;13.70;1.00
5802;DHT22;2927;49.366;8.530;2022-09-29T09:44:21;13.70;1.00
5802;DHT22;2927;49.366;8.530;2022-09-29T09:46:55;13.50;1.00
5802;DHT22;2927;49.366;8.530;2022-09-29T09:49:36;13.00;1.00
5802;DHT22;2927;49.366;8.530;2022-09-29T09:52:10;13.20;79.80
5802;DHT22;2927;49.366;8.530;2022-09-29T09:54:40;13.40;99.90
5802;DHT22;2927;49.366;8.530;2022-09-29T10:03:07;13.60;99.90
5802;DHT22;2927;49.366;8.530;2022-09-29T10:05:35;13.60;1.00
5802;DHT22;2927;49.366;8.530;2022-09-29T10:08:10;13.60;99.90
5802;DHT22;2927;49.366;8.530;2022-09-29T10:10:40;13.90;1.00
5802;DHT22;2927;49.366;8.530;2022-09-29T10:13:10;13.90;99.90
5802;DHT22;2927;49.366;8.530;2022-09-29T10:20:37;13.50;1.00
5802;DHT22;2927;49.366;8.530;2022-09-29T10:23:18;13.60;1.00
5802;DHT22;2927;49.366;8.530;2022-09-29T10:25:52;13.80;99.90
5802;DHT22;2927;49.366;8.530;2022-09-29T10:28:19;13.70;99.90
5802;DHT22;2927;49.366;8.530;2022-09-29T10:30:44;13.80;1.00
5802;DHT22;2927;49.366;8.530;2022-09-29T10:33:17;14.00;1.00
5802;DHT22;2927;49.366;8.530;2022-09-29T10:35:44;14.30;1.00
5802;DHT22;2927;49.366;8.530;2022-09-29T10:38:17;14.20;99.90
5802;DHT22;2927;49.366;8.530;2022-09-29T10:41:12;14.10;99.90
5802;DHT22;2927;49.366;8.530;2022-09-29T10:43:40;14.00;1.00
5802;DHT22;2927;49.366;8.530;2022-09-29T10:46:35;13.80;1.00
5802;DHT22;2927;49.366;8.530;2022-09-29T10:49:23;13.90;1.00
5802;DHT22;2927;49.366;8.530;2022-09-29T10:54:18;13.80;1.00
5802;DHT22;2927;49.366;8.530;2022-09-29T10:56:48;13.90;1.00
5802;DHT22;2927;49.366;8.530;2022-09-29T10:59:15;13.90;99.90
5802;DHT22;2927;49.366;8.530;2022-09-29T11:01:44;13.90;1.00
5802;DHT22;2927;49.366;8.530;2022-09-29T11:04:24;13.90;1.00
5802;DHT22;2927;49.366;8.530;2022-09-29T11:06:50;13.80;99.90
5802;DHT22;2927;49.366;8.530;2022-09-29T11:17:01;13.90;1.00
5802;DHT22;2927;49.366;8.530;2022-09-29T11:19:30;13.90;1.00
5802;DHT22;2927;49.366;8.530;2022-09-29T11:22:25;13.90;99.90
5802;DHT22;2927;49.366;8.530;2022-09-29T11:25:20;14.00;99.90
5802;DHT22;2927;49.366;8.530;2022-09-29T11:30:49;14.20;99.90
5802;DHT22;2927;49.366;8.530;2022-09-29T11:36:29;14.70;1.00
5802;DHT22;2927;49.366;8.530;2022-09-29T11:44:54;14.60;1.00
5802;DHT22;2927;49.366;8.530;2022-09-29T11:47:47;14.40;1.00
5802;DHT22;2927;49.366;8.530;2022-09-29T11:50:27;14.50;1.00
5802;DHT22;2927;49.366;8.530;2022-09-29T11:56:04;14.40;1.00
5802;DHT22;2927;49.366;8.530;2022-09-29T11:58:41;14.30;99.90
5802;DHT22;2927;49.366;8.530;2022-09-29T12:01:28;14.50;93.70
5802;DHT22;2927;49.366;8.530;2022-09-29T12:07:09;14.30;1.00
5802;DHT22;2927;49.366;8.530;2022-09-29T12:12:45;14.80;99.90
5802;DHT22;2927;49.366;8.530;2022-09-29T12:15:25;15.20;1.00
5802;DHT22;2927;49.366;8.530;2022-09-29T12:17:57;15.40;85.60
5802;DHT22;2927;49.366;8.530;2022-09-29T12:20:25;15.40;99.90
5802;DHT22;2927;49.366;8.530;2022-09-29T12:22:52;15.60;99.90
5802;DHT22;2927;49.366;8.530;2022-09-29T12:25:25;15.90;99.90
5802;DHT22;2927;49.366;8.530;2022-09-29T12:27:57;16.00;1.00
5802;DHT22;2927;49.366;8.530;2022-09-29T12:30:28;16.00;1.00
5802;DHT22;2927;49.366;8.530;2022-09-29T12:33:04;16.20;1.00
5802;DHT22;2927;49.366;8.530;2022-09-29T12:35:44;16.10;1.00
5802;DHT22;2927;49.366;8.530;2022-09-29T12:38:30;16.00;1.00
5802;DHT22;2927;49.366;8.530;2022-09-29T12:41:39;16.20;1.00
5802;DHT22;2927;49.366;8.530;2022-09-29T12:46:36;16.10;99.90
5802;DHT22;2927;49.366;8.530;2022-09-29T12:49:13;16.00;99.90
5802;DHT22;2927;49.366;8.530;2022-09-29T12:51:47;15.90;99.90
5802;DHT22;2927;49.366;8.530;2022-09-29T12:54:46;15.50;72.20
5802;DHT22;2927;49.366;8.530;2022-09-29T12:57:37;15.30;1.00
5802;DHT22;2927;49.366;8.530;2022-09-29T13:00:12;15.40;1.00
5802;DHT22;2927;49.366;8.530;2022-09-29T13:03:06;15.50;1.00
5802;DHT22;2927;49.366;8.530;2022-09-29T13:11:38;15.80;1.00
5802;DHT22;2927;49.366;8.530;2022-09-29T13:20:14;15.90;99.90
5802;DHT22;2927;49.366;8.530;2022-09-29T13:22:56;16.00;1.00
5802;DHT22;2927;49.366;8.530;2022-09-29T13:26:04;15.90;1.00
5802;DHT22;2927;49.366;8.530;2022-09-29T13:28:42;15.90;1.00
5802;DHT22;2927;49.366;8.530;2022-09-29T13:31:20;16.20;99.90
5802;DHT22;2927;49.366;8.530;2022-09-29T13:33:51;15.90;99.90
5802;DHT22;2927;49.366;8.530;2022-09-29T13:36:26;16.00;99.90
5802;DHT22;2927;49.366;8.530;2022-09-29T13:38:55;16.10;26.80
5802;DHT22;2927;49.366;8.530;2022-09-29T13:54:27;16.10;1.00
5802;DHT22;2927;49.366;8.530;2022-09-29T13:57:16;16.10;1.00
5802;DHT22;2927;49.366;8.530;2022-09-29T14:02:31;15.90;1.00
5802;DHT22;2927;49.366;8.530;2022-09-29T14:04:58;15.90;99.90
5802;DHT22;2927;49.366;8.530;2022-09-29T14:07:35;15.80;99.90
5802;DHT22;2927;49.366;8.530;2022-09-29T14:12:45;15.60;1.00
5802;DHT22;2927;49.366;8.530;2022-09-29T14:15:15;15.80;99.90
5802;DHT22;2927;49.366;8.530;2022-09-29T14:17:48;16.10;99.90
5802;DHT22;2927;49.366;8.530;2022-09-29T14:20:20;16.10;1.00
5802;DHT22;2927;49.366;8.530;2022-09-29T14:23:05;16.30;1.00
5802;DHT22;2927;49.366;8.530;2022-09-29T14:28:09;16.30;1.00
5802;DHT22;2927;49.366;8.530;2022-09-29T14:30:41;16.40;1.00
5802;DHT22;2927;49.366;8.530;2022-09-29T14:33:40;16.40;99.90
5802;DHT22;2927;49.366;8.530;2022-09-29T14:36:13;16.50;1.00
5802;DHT22;2927;49.366;8.530;2022-09-29T14:38:43;16.50;1.00
5802;DHT22;2927;49.366;8.530;2022-09-29T15:00:22;15.60;1.00
5802;DHT22;2927;49.366;8.530;2022-09-29T15:02:54;15.50;1.00
5802;DHT22;2927;49.366;8.530;2022-09-29T15:05:31;15.50;1.00
5802;DHT22;2927;49.366;8.530;2022-09-29T15:07:59;15.50;1.00
5802;DHT22;2927;49.366;8.530;2022-09-29T15:10:31;15.20;1.00
5802;DHT22;2927;49.366;8.530;2022-09-29T15:13:24;14.90;99.90
5802;DHT22;2927;49.366;8.530;2022-09-29T15:19:05;15.00;1.00
5802;DHT22;2927;49.366;8.530;2022-09-29T15:24:26;14.90;99.90
5802;DHT22;2927;49.366;8.530;2022-09-29T15:27:03;14.70;1.00
5802;DHT22;2927;49.366;8.530;2022-09-29T15:29:30;14.50;1.00
5802;DHT22;2927;49.366;8.530;2022-09-29T15:31:57;14.50;1.00
5802;DHT22;2927;49.366;8.530;2022-09-29T15:34:24;14.50;1.00
5802;DHT22;2927;49.366;8.530;2022-09-29T15:36:54;14.50;99.90
5802;DHT22;2927;49.366;8.530;2022-09-29T15:42:11;14.50;57.80
5802;DHT22;2927;49.366;8.530;2022-09-29T15:44:44;14.40;1.00
5802;DHT22;2927;49.366;8.530;2022-09-29T15:47:20;14.40;99.90
5802;DHT22;2927;49.366;8.530;2022-09-29T15:49:52;14.30;99.90
5802;DHT22;2927;49.366;8.530;2022-09-29T15:52:19;14.20;1.00
5802;DHT22;2927;49.366;8.530;2022-09-29T15:54:52;14.10;51.50
5802;DHT22;2927;49.366;8.530;2022-09-29T15:57:31;14.10;99.90
5802;DHT22;2927;49.366;8.530;2022-09-29T16:05:36;14.00;99.90
5802;DHT22;2927;49.366;8.530;2022-09-29T16:08:05;13.90;1.00
5802;DHT22;2927;49.366;8.530;2022-09-29T16:10:39;13.90;1.00
5802;DHT22;2927;49.366;8.530;2022-09-29T16:13:07;13.80;1.00
5802;DHT22;2927;49.366;8.530;2022-09-29T16:15:45;13.90;1.00
5802;DHT22;2927;49.366;8.530;2022-09-29T16:18:25;13.80;1.00
5802;DHT22;2927;49.366;8.530;2022-09-29T16:20:54;13.80;1.00
5802;DHT22;2927;49.366;8.530;2022-09-29T16:26:09;13.80;99.90
5802;DHT22;2927;49.366;8.530;2022-09-29T16:29:25;13.80;99.90
5802;DHT22;2927;49.366;8.530;2022-09-29T16:31:26;13.70;99.90
5802;DHT22;2927;49.366;8.530;2022-09-29T16:33:57;13.60;99.90
5802;DHT22;2927;49.366;8.530;2022-09-29T16:36:33;13.60;99.90
5802;DHT22;2927;49.366;8.530;2022-09-29T16:39:02;13.50;1.00
5802;DHT22;2927;49.366;8.530;2022-09-29T16:41:32;13.40;1.00
5802;DHT22;2927;49.366;8.530;2022-09-29T16:44:23;13.40;1.00
5802;DHT22;2927;49.366;8.530;2022-09-29T16:46:53;13.40;99.90
5802;DHT22;2927;49.366;8.530;2022-09-29T16:49:28;13.30;99.90
5802;DHT22;2927;49.366;8.530;2022-09-29T16:51:57;13.30;99.90
5802;DHT22;2927;49.366;8.530;2022-09-29T16:54:30;13.30;99.90
5802;DHT22;2927;49.366;8.530;2022-09-29T16:57:28;13.30;1.00
5802;DHT22;2927;49.366;8.530;2022-09-29T17:00:00;13.30;1.00
5802;DHT22;2927;49.366;8.530;2022-09-29T17:02:27;13.20;16.60
5802;DHT22;2927;49.366;8.530;2022-09-29T17:04:54;13.20;1.00
5802;DHT22;2927;49.366;8.530;2022-09-29T17:07:22;13.20;86.20
5802;DHT22;2927;49.366;8.530;2022-09-29T17:09:55;13.10;1.00
5802;DHT22;2927;49.366;8.530;2022-09-29T17:12:23;13.20;1.00
5802;DHT22;2927;49.366;8.530;2022-09-29T17:14:49;13.10;99.90
5802;DHT22;2927;49.366;8.530;2022-09-29T17:17:21;12.90;99.90
5802;DHT22;2927;49.366;8.530;2022-09-29T17:19:48;12.80;1.00
5802;DHT22;2927;49.366;8.530;2022-09-29T17:22:30;12.70;99.90
5802;DHT22;2927;49.366;8.530;2022-09-29T17:24:57;12.50;99.90
5802;DHT22;2927;49.366;8.530;2022-09-29T17:27:23;12.40;99.90
5802;DHT22;2927;49.366;8.530;2022-09-29T17:30:08;12.40;99.90
5802;DHT22;2927;49.366;8.530;2022-09-29T17:32:34;12.30;1.00
5802;DHT22;2927;49.366;8.530;2022-09-29T17:35:01;12.40;1.00
5802;DHT22;2927;49.366;8.530;2022-09-29T17:37:26;12.40;1.00
5802;DHT22;2927;49.366;8.530;2022-09-29T17:39:52;12.40;1.00
5802;DHT22;2927;49.366;8.530;2022-09-29T17:42:17;12.30;1.00
5802;DHT22;2927;49.366;8.530;2022-09-29T17:44:43;12.30;1.00
5802;DHT22;2927;49.366;8.530;2022-09-29T17:47:13;12.30;1.00
5802;DHT22;2927;49.366;8.530;2022-09-29T17:49:43;12.10;1.00
5802;DHT22;2927;49.366;8.530;2022-09-29T17:52:09;12.10;1.00
5802;DHT22;2927;49.366;8.530;2022-09-29T17:54:39;12.10;1.00
5802;DHT22;2927;49.366;8.530;2022-09-29T17:57:05;12.10;1.00
5802;DHT22;2927;49.366;8.530;2022-09-29T17:59:32;12.10;1.00
5802;DHT22;2927;49.366;8.530;2022-09-29T18:01:59;12.00;1.00
5802;DHT22;2927;49.366;8.530;2022-09-29T18:04:25;12.10;1.00
5802;DHT22;2927;49.366;8.530;2022-09-29T18:06:51;12.10;1.00
5802;DHT22;2927;49.366;8.530;2022-09-29T18:09:17;12.20;1.00
5802;DHT22;2927;49.366;8.530;2022-09-29T18:11:43;12.20;1.00
5802;DHT22;2927;49.366;8.530;2022-09-29T18:14:09;12.20;1.00
5802;DHT22;2927;49.366;8.530;2022-09-29T18:16:35;12.20;1.00
5802;DHT22;2927;49.366;8.530;2022-09-29T18:19:01;12.10;1.00
5802;DHT22;2927;49.366;8.530;2022-09-29T18:21:26;12.00;1.00
5802;DHT22;2927;49.366;8.530;2022-09-29T18:23:53;12.00;1.00
5802;DHT22;2927;49.366;8.530;2022-09-29T18:26:19;12.10;1.00
5802;DHT22;2927;49.366;8.530;2022-09-29T18:28:45;12.10;1.00
5802;DHT22;2927;49.366;8.530;2022-09-29T18:33:47;12.00;1.00
5802;DHT22;2927;49.366;8.530;2022-09-29T18:36:13;12.00;1.00
5802;DHT22;2927;49.366;8.530;2022-09-29T18:38:39;11.90;1.00
5802;DHT22;2927;49.366;8.530;2022-09-29T18:41:05;12.00;1.00
5802;DHT22;2927;49.366;8.530;2022-09-29T18:43:31;12.00;1.00
5802;DHT22;2927;49.366;8.530;2022-09-29T18:45:56;12.00;1.00
5802;DHT22;2927;49.366;8.530;2022-09-29T18:48:23;12.00;19.70
5802;DHT22;2927;49.366;8.530;2022-09-29T18:50:50;12.00;44.00
5802;DHT22;2927;49.366;8.530;2022-09-29T18:53:18;12.00;99.90
5802;DHT22;2927;49.366;8.530;2022-09-29T18:55:44;12.00;99.90
5802;DHT22;2927;49.366;8.530;2022-09-29T18:58:15;11.90;99.90
5802;DHT22;2927;49.366;8.530;2022-09-29T19:00:46;11.80;43.90
5802;DHT22;2927;49.366;8.530;2022-09-29T19:03:12;11.80;40.50
5802;DHT22;2927;49.366;8.530;2022-09-29T19:05:40;11.80;14.40
5802;DHT22;2927;49.366;8.530;2022-09-29T19:08:06;11.80;7.80
5802;DHT22;2927;49.366;8.530;2022-09-29T19:10:34;11.70;8.40
5802;DHT22;2927;49.366;8.530;2022-09-29T19:13:02;11.70;96.30
5802;DHT22;2927;49.366;8.530;2022-09-29T19:15:30;11.70;90.60
5802;DHT22;2927;49.366;8.530;2022-09-29T19:17:56;11.70;99.90
5802;DHT22;2927;49.366;8.530;2022-09-29T19:20:24;11.70;99.90
5802;DHT22;2927;49.366;8.530;2022-09-29T19:22:51;11.60;99.90
5802;DHT22;2927;49.366;8.530;2022-09-29T19:25:22;11.60;51.40
5802;DHT22;2927;49.366;8.530;2022-09-29T19:27:49;11.60;10.20
5802;DHT22;2927;49.366;8.530;2022-09-29T19:30:19;11.60;1.00